Terminal Aerodrome Forecast
Issued by NWS Cleveland, OH

Home | Current Version | Previous Version | Graphics & Text | Print | Product List | Glossary On
Versions: 1 2 3 4 5 6 7 8 9 10 11 12 13 14 15 16 17 18 19 20
000
FTUS41 KCLE 251700
TAFYNG
TAF
KYNG 251726Z 2518/2618 21012G20KT P6SM SCT060 BKN150
     FM252100 21014G22KT P6SM VCSH SCT045 BKN120
      TEMPO 2521/2601 BKN045
     FM260100 20011KT P6SM SCT045 BKN120
     FM260900 20008KT 5SM BR SCT012 BKN035
      TEMPO 2609/2613 3SM -SHRA BR OVC012
     FM261300 20012KT 6SM HZ VCSH BKN025 BKN045=

USA.gov is the U.S. government's official web portal to all federal, state and local government web resources and services.